Time;durP1;ratioP1;P1;durP2;ratioP2;P2;SDS_P1;SDS_P2;PMS_P1;PMS_P2;Temp;Humidity;BMP_temperature;BMP_pressure;BME280_temperature;BME280_humidity;BME280_pressure;Samples;Min_cycle;Max_cycle;Signal;HPM_P1;HPM_P2
2023/11/30 00:02:01;;;;;;;3.27;2.33;;;19.40;56.20;;;;;;5011763;28;20177;-69
2023/11/30 00:04:27;;;;;;;3.30;3.00;;;19.40;56.20;;;;;;5011855;28;20436;-69
2023/11/30 00:06:52;;;;;;;3.17;2.70;;;19.40;56.20;;;;;;5011860;28;20184;-68
2023/11/30 00:09:18;;;;;;;3.90;2.50;;;19.40;56.20;;;;;;5011695;28;20647;-69
2023/11/30 00:11:43;;;;;;;2.73;2.53;;;19.40;56.20;;;;;;5011486;28;20172;-68
2023/11/30 00:14:09;;;;;;;3.20;2.43;;;19.30;56.20;;;;;;5011582;28;20180;-69
2023/11/30 00:16:35;;;;;;;2.83;2.03;;;19.40;56.20;;;;;;5011569;28;20184;-69
2023/11/30 00:19:00;;;;;;;3.03;1.90;;;19.40;56.20;;;;;;5011440;28;20571;-69
2023/11/30 00:21:26;;;;;;;2.27;1.97;;;19.40;56.20;;;;;;5010206;28;20191;-69
2023/11/30 00:23:51;;;;;;;2.80;2.47;;;19.30;56.20;;;;;;5011265;28;20199;-69
2023/11/30 00:26:17;;;;;;;2.60;2.23;;;19.30;56.20;;;;;;5011309;28;20310;-69
2023/11/30 00:28:42;;;;;;;2.00;1.80;;;19.30;56.20;;;;;;5011647;28;20194;-68
2023/11/30 00:31:08;;;;;;;2.97;2.23;;;19.40;56.20;;;;;;5011415;28;20184;-68
2023/11/30 00:33:34;;;;;;;3.77;2.33;;;19.30;56.20;;;;;;5011320;28;20557;-69
2023/11/30 00:36:00;;;;;;;2.80;2.07;;;19.30;56.20;;;;;;5011144;28;20196;-69
2023/11/30 00:38:25;;;;;;;3.27;2.47;;;19.40;56.20;;;;;;5011412;28;20180;-69
2023/11/30 00:40:51;;;;;;;3.07;2.47;;;19.30;56.10;;;;;;5011196;28;20258;-69
2023/11/30 00:43:17;;;;;;;4.10;2.40;;;19.30;56.20;;;;;;5011382;28;20677;-69
2023/11/30 00:45:43;;;;;;;3.50;2.67;;;19.30;56.20;;;;;;5011100;28;20243;-69
2023/11/30 00:48:08;;;;;;;2.90;2.60;;;19.30;56.20;;;;;;5010916;28;20427;-69
2023/11/30 00:50:34;;;;;;;2.80;2.47;;;19.30;56.20;;;;;;5010877;28;20419;-68
2023/11/30 00:53:00;;;;;;;3.00;2.53;;;19.30;56.20;;;;;;5011023;28;20208;-69
2023/11/30 00:55:25;;;;;;;2.30;1.93;;;19.30;56.20;;;;;;5010873;28;20196;-69
2023/11/30 00:57:51;;;;;;;3.90;2.93;;;19.30;56.20;;;;;;5010973;28;20338;-68
2023/11/30 01:00:16;;;;;;;2.67;2.43;;;19.30;56.10;;;;;;5010831;28;20184;-69
2023/11/30 01:02:42;;;;;;;3.33;2.23;;;19.30;56.20;;;;;;5011076;28;20263;-69
2023/11/30 01:05:08;;;;;;;2.60;2.20;;;19.30;56.20;;;;;;5010820;28;20196;-69
2023/11/30 01:07:35;;;;;;;2.40;2.10;;;19.30;56.20;;;;;;5010783;28;20670;-68
2023/11/30 01:10:01;;;;;;;2.43;2.00;;;19.30;56.10;;;;;;5010614;28;20430;-68
2023/11/30 01:12:26;;;;;;;3.33;2.47;;;19.30;56.20;;;;;;5010617;28;20987;-69
2023/11/30 01:14:53;;;;;;;4.33;2.67;;;19.30;56.20;;;;;;5011040;28;20204;-69
2023/11/30 01:17:19;;;;;;;2.60;2.37;;;19.30;56.20;;;;;;5010792;28;20176;-69
2023/11/30 01:19:44;;;;;;;2.93;2.27;;;19.30;56.20;;;;;;5010649;28;20522;-69
2023/11/30 01:22:10;;;;;;;2.83;2.20;;;19.30;56.20;;;;;;5010832;28;20179;-69
2023/11/30 01:24:36;;;;;;;3.20;2.17;;;19.30;56.20;;;;;;5010710;28;20227;-69
2023/11/30 01:27:01;;;;;;;2.53;2.23;;;19.30;56.20;;;;;;5010364;28;20218;-69
2023/11/30 01:29:27;;;;;;;2.60;2.40;;;19.30;56.20;;;;;;5010597;28;20187;-69
2023/11/30 01:31:53;;;;;;;2.60;2.40;;;19.30;56.20;;;;;;5010422;28;20219;-69
2023/11/30 01:34:19;;;;;;;2.83;1.90;;;19.30;56.80;;;;;;5010546;28;20223;-69
2023/11/30 01:36:45;;;;;;;2.33;2.13;;;19.30;56.20;;;;;;5010617;28;20667;-69
2023/11/30 01:39:12;;;;;;;3.30;2.40;;;19.30;56.20;;;;;;5014344;28;20413;-69
2023/11/30 01:41:37;;;;;;;2.90;2.60;;;19.30;56.20;;;;;;5014548;28;20180;-69
2023/11/30 01:44:03;;;;;;;2.10;1.80;;;19.30;56.20;;;;;;5014146;28;20499;-68
2023/11/30 01:46:30;;;;;;;2.73;2.17;;;19.30;56.20;;;;;;5014478;28;20177;-69
2023/11/30 01:48:57;;;;;;;1.73;1.60;;;19.30;56.20;;;;;;5014338;28;20418;-69
2023/11/30 01:51:24;;;;;;;3.40;2.30;;;19.30;56.70;;;;;;5014337;28;20410;-69
2023/11/30 01:53:52;;;;;;;3.03;2.40;;;19.30;56.20;;;;;;5014107;28;20470;-68
2023/11/30 01:56:19;;;;;;;2.63;1.93;;;19.30;56.10;;;;;;5014146;28;20442;-68
2023/11/30 01:58:45;;;;;;;2.30;2.10;;;19.30;56.20;;;;;;5014114;28;20436;-69
2023/11/30 02:01:11;;;;;;;2.77;2.13;;;19.30;56.20;;;;;;5014219;28;20411;-68
2023/11/30 02:03:37;;;;;;;3.30;2.07;;;19.30;56.20;;;;;;5014024;28;20979;-69
2023/11/30 02:06:03;;;;;;;2.67;2.20;;;19.30;56.20;;;;;;5013836;28;20253;-69
2023/11/30 02:08:29;;;;;;;2.23;1.80;;;19.30;56.20;;;;;;5013976;28;20419;-69
2023/11/30 02:10:55;;;;;;;2.33;2.13;;;19.30;56.20;;;;;;5013843;28;20554;-69
2023/11/30 02:13:21;;;;;;;3.10;1.97;;;19.30;56.20;;;;;;5013799;28;20212;-69
2023/11/30 02:15:46;;;;;;;2.37;2.00;;;19.30;56.70;;;;;;5013795;28;20518;-70
2023/11/30 02:18:12;;;;;;;2.57;2.03;;;19.30;56.20;;;;;;5013978;28;20667;-70
2023/11/30 02:20:38;;;;;;;3.10;2.20;;;19.30;56.20;;;;;;5013731;28;20180;-68
2023/11/30 02:23:03;;;;;;;2.80;2.20;;;19.30;56.20;;;;;;5013621;28;20597;-69
2023/11/30 02:25:29;;;;;;;2.23;1.87;;;19.30;56.20;;;;;;5013378;28;20216;-69
2023/11/30 02:27:54;;;;;;;2.60;2.20;;;19.30;56.20;;;;;;5013497;28;20228;-69
2023/11/30 02:30:20;;;;;;;2.67;1.80;;;19.30;56.20;;;;;;5013503;28;20182;-69
2023/11/30 02:32:46;;;;;;;3.17;2.57;;;19.30;56.20;;;;;;5013620;28;20235;-69
2023/11/30 02:35:11;;;;;;;2.70;2.10;;;19.30;56.20;;;;;;5013399;28;20250;-68
2023/11/30 02:37:37;;;;;;;2.67;1.70;;;19.30;56.20;;;;;;5013806;28;20730;-68
2023/11/30 02:40:03;;;;;;;2.83;2.47;;;19.30;56.20;;;;;;5013520;28;20542;-68
2023/11/30 02:42:29;;;;;;;2.13;1.80;;;19.30;56.20;;;;;;5012640;28;20251;-69
2023/11/30 02:44:54;;;;;;;2.60;1.97;;;19.30;56.20;;;;;;5013374;28;20247;-69
2023/11/30 02:47:20;;;;;;;1.90;1.70;;;19.30;56.20;;;;;;5012842;28;20216;-69
2023/11/30 02:49:45;;;;;;;2.10;1.90;;;19.30;56.20;;;;;;5013095;28;20251;-68
2023/11/30 02:52:11;;;;;;;2.73;2.10;;;19.30;56.20;;;;;;5013024;28;20200;-68
2023/11/30 02:54:36;;;;;;;3.30;1.70;;;19.30;56.80;;;;;;5012966;28;20665;-69
2023/11/30 02:57:02;;;;;;;2.50;2.27;;;19.30;56.20;;;;;;5013121;28;20264;-69
2023/11/30 02:59:28;;;;;;;2.70;2.07;;;19.30;56.20;;;;;;5013093;28;20172;-68
2023/11/30 03:01:53;;;;;;;2.73;2.23;;;19.30;56.20;;;;;;5013021;28;20164;-68
2023/11/30 03:04:19;;;;;;;2.67;1.87;;;19.20;56.20;;;;;;5013047;28;20623;-69
2023/11/30 03:06:49;;;;;;;2.07;1.80;;;19.20;56.10;;;;;;5012846;28;20176;-69
2023/11/30 03:09:15;;;;;;;2.30;2.10;;;19.30;56.20;;;;;;5013380;28;20149;-67
2023/11/30 03:11:40;;;;;;;2.83;1.80;;;19.30;56.20;;;;;;5013275;28;20411;-66
2023/11/30 03:14:06;;;;;;;2.57;2.07;;;19.20;56.10;;;;;;5013594;28;20187;-67
2023/11/30 03:16:31;;;;;;;2.70;2.00;;;19.20;56.10;;;;;;5013274;28;20229;-66
2023/11/30 03:18:57;;;;;;;3.50;2.83;;;19.30;56.20;;;;;;5012719;28;20169;-67
2023/11/30 03:21:23;;;;;;;2.20;1.60;;;19.30;56.20;;;;;;5013338;28;20269;-67
2023/11/30 03:23:49;;;;;;;2.30;1.80;;;19.20;56.10;;;;;;5013017;28;20188;-69
2023/11/30 03:26:18;;;;;;;1.87;1.73;;;19.30;56.20;;;;;;5012518;28;20212;-69
2023/11/30 03:28:44;;;;;;;2.70;1.90;;;19.30;56.20;;;;;;5012677;28;20435;-69
2023/11/30 03:31:10;;;;;;;2.20;1.40;;;19.20;56.10;;;;;;5012749;28;20439;-69
2023/11/30 03:33:35;;;;;;;1.80;1.70;;;19.30;56.20;;;;;;5012437;28;21000;-68
2023/11/30 03:36:01;;;;;;;2.67;2.33;;;19.20;56.10;;;;;;5012483;28;20263;-68
2023/11/30 03:38:27;;;;;;;2.00;1.80;;;19.20;56.10;;;;;;5012604;28;20211;-68
2023/11/30 03:40:52;;;;;;;2.03;1.83;;;19.20;56.10;;;;;;5012648;28;20165;-69
2023/11/30 03:43:18;;;;;;;1.83;1.50;;;19.20;56.10;;;;;;5012501;28;20177;-69
2023/11/30 03:45:43;;;;;;;2.90;1.70;;;19.20;56.10;;;;;;5012511;28;20192;-69
2023/11/30 03:48:09;;;;;;;2.10;1.90;;;19.30;56.20;;;;;;5012784;28;20180;-68
2023/11/30 03:50:35;;;;;;;2.07;1.87;;;19.20;56.20;;;;;;5012247;28;20943;-68
2023/11/30 03:53:00;;;;;;;2.00;1.80;;;19.20;56.10;;;;;;5012188;28;20259;-69
2023/11/30 03:55:26;;;;;;;1.93;1.60;;;19.20;56.10;;;;;;5012215;28;20192;-69
2023/11/30 03:57:52;;;;;;;2.70;2.00;;;19.20;56.20;;;;;;5012054;28;20168;-68
2023/11/30 04:00:18;;;;;;;2.57;1.53;;;19.20;56.10;;;;;;5011356;28;20426;-69
2023/11/30 04:02:44;;;;;;;1.97;1.60;;;19.20;56.20;;;;;;5011886;28;20172;-70
2023/11/30 04:05:13;;;;;;;3.43;2.07;;;19.20;56.10;;;;;;5011835;28;20199;-68
2023/11/30 04:07:39;;;;;;;2.27;1.87;;;19.20;56.10;;;;;;5011785;28;20184;-68
2023/11/30 04:10:06;;;;;;;1.80;1.47;;;19.20;56.20;;;;;;5011856;28;20438;-68
2023/11/30 04:12:32;;;;;;;1.90;1.53;;;19.20;56.10;;;;;;5011743;28;20451;-69
2023/11/30 04:14:58;;;;;;;2.23;1.90;;;19.20;56.10;;;;;;5011656;28;20435;-69
2023/11/30 04:17:23;;;;;;;1.77;1.53;;;19.20;56.10;;;;;;5011748;28;20176;-69
2023/11/30 04:19:49;;;;;;;2.87;1.80;;;19.20;56.10;;;;;;5011968;28;20200;-69
2023/11/30 04:22:15;;;;;;;2.07;1.70;;;19.20;56.10;;;;;;5011675;28;20206;-69
2023/11/30 04:24:41;;;;;;;2.20;1.80;;;19.20;56.10;;;;;;5011522;28;20286;-69
2023/11/30 04:27:07;;;;;;;1.40;1.30;;;19.20;56.20;;;;;;5011455;28;20196;-69
2023/11/30 04:29:33;;;;;;;2.03;1.70;;;19.20;56.10;;;;;;5011937;28;20597;-69
2023/11/30 04:31:59;;;;;;;2.07;1.83;;;19.20;56.20;;;;;;5011434;28;20454;-69
2023/11/30 04:34:24;;;;;;;1.73;1.63;;;19.20;56.20;;;;;;5011405;28;20266;-69
2023/11/30 04:36:50;;;;;;;1.77;1.53;;;19.20;56.20;;;;;;5011466;28;20204;-69
2023/11/30 04:39:15;;;;;;;2.13;1.87;;;19.20;56.20;;;;;;5009992;28;20180;-69
2023/11/30 04:41:41;;;;;;;2.53;2.00;;;19.20;56.20;;;;;;5011350;28;20181;-69
2023/11/30 04:44:07;;;;;;;1.87;1.67;;;19.20;56.20;;;;;;5011370;28;20183;-69
2023/11/30 04:46:32;;;;;;;2.03;1.83;;;19.20;56.20;;;;;;5011471;28;20651;-69
2023/11/30 04:48:58;;;;;;;2.47;1.80;;;19.20;56.20;;;;;;5011073;28;20669;-68
2023/11/30 04:51:24;;;;;;;1.93;1.77;;;19.20;56.20;;;;;;5011325;28;20652;-69
2023/11/30 04:53:50;;;;;;;2.00;1.60;;;19.20;56.20;;;;;;5011148;28;20210;-69
2023/11/30 04:56:16;;;;;;;1.97;1.77;;;19.20;56.20;;;;;;5011061;28;20427;-69
2023/11/30 04:58:42;;;;;;;2.17;1.53;;;19.20;56.20;;;;;;5011349;28;20411;-69
2023/11/30 05:01:08;;;;;;;1.93;1.73;;;19.20;56.20;;;;;;5011086;28;20195;-69
2023/11/30 05:03:34;;;;;;;2.03;1.80;;;19.20;56.80;;;;;;5011116;28;20411;-69
2023/11/30 05:06:00;;;;;;;2.13;1.80;;;19.20;56.20;;;;;;5011330;28;20557;-69
2023/11/30 05:08:25;;;;;;;2.27;1.67;;;19.20;56.20;;;;;;5011828;28;20418;-68
2023/11/30 05:10:51;;;;;;;1.70;1.60;;;19.20;56.20;;;;;;5011118;28;20172;-68
2023/11/30 05:13:17;;;;;;;2.23;1.70;;;19.10;56.10;;;;;;5011017;28;20562;-68
2023/11/30 05:15:42;;;;;;;2.00;1.57;;;19.10;56.10;;;;;;5010965;28;20267;-69
2023/11/30 05:18:08;;;;;;;2.03;1.67;;;19.20;56.20;;;;;;5010988;28;20168;-69
2023/11/30 05:20:34;;;;;;;1.93;1.60;;;19.20;56.20;;;;;;5011364;28;20292;-68
2023/11/30 05:23:03;;;;;;;2.13;1.47;;;19.20;56.20;;;;;;5011026;28;20971;-68
2023/11/30 05:25:32;;;;;;;1.60;1.47;;;19.20;56.20;;;;;;5011107;28;20597;-68
2023/11/30 05:27:58;;;;;;;1.83;1.67;;;19.10;56.10;;;;;;5011370;28;20765;-69
2023/11/30 05:30:24;;;;;;;1.80;1.63;;;19.10;56.10;;;;;;5010847;28;20514;-68
2023/11/30 05:32:50;;;;;;;1.50;1.30;;;19.10;56.70;;;;;;5010966;28;20453;-69
2023/11/30 05:35:16;;;;;;;3.10;2.13;;;19.10;56.20;;;;;;5010855;28;20439;-69
2023/11/30 05:37:42;;;;;;;1.93;1.67;;;19.10;56.10;;;;;;5010901;28;20180;-67
2023/11/30 05:40:08;;;;;;;2.17;1.60;;;19.10;56.10;;;;;;5010796;28;20509;-68
2023/11/30 05:42:34;;;;;;;2.87;1.37;;;19.10;56.10;;;;;;5011395;28;20443;-69
2023/11/30 05:45:00;;;;;;;1.60;1.40;;;19.10;56.10;;;;;;5009476;28;20474;-69
2023/11/30 05:47:25;;;;;;;1.80;1.60;;;19.10;56.20;;;;;;5010819;28;20593;-68
2023/11/30 05:49:52;;;;;;;1.50;1.20;;;19.10;56.10;;;;;;5010949;28;20173;-69
2023/11/30 05:52:17;;;;;;;1.80;1.70;;;19.10;56.10;;;;;;5010621;28;20283;-68
2023/11/30 05:54:43;;;;;;;1.87;1.63;;;19.10;56.10;;;;;;5010910;28;20857;-69
2023/11/30 05:57:08;;;;;;;1.87;1.73;;;19.10;56.10;;;;;;5009327;28;20597;-69
2023/11/30 05:59:34;;;;;;;2.90;1.60;;;19.10;56.10;;;;;;5011007;28;20188;-69
2023/11/30 06:02:01;;;;;;;1.80;1.60;;;19.10;56.10;;;;;;5010845;28;20185;-69
2023/11/30 06:04:30;;;;;;;1.47;1.30;;;19.10;56.20;;;;;;5010686;28;20184;-69
2023/11/30 06:06:56;;;;;;;1.60;1.43;;;19.10;56.10;;;;;;5010709;28;20437;-69
2023/11/30 06:09:22;;;;;;;1.90;1.60;;;19.10;56.10;;;;;;5009933;28;20443;-69
2023/11/30 06:11:47;;;;;;;2.00;1.40;;;19.20;56.20;;;;;;5010098;28;20605;-71
2023/11/30 06:14:13;;;;;;;1.80;1.37;;;19.10;56.10;;;;;;5009942;28;20184;-68
2023/11/30 06:16:38;;;;;;;2.13;1.63;;;19.10;56.10;;;;;;5009718;28;20639;-68
2023/11/30 06:19:04;;;;;;;1.73;1.30;;;19.10;56.10;;;;;;5009923;28;20173;-68
2023/11/30 06:21:30;;;;;;;1.97;1.50;;;19.10;56.10;;;;;;5009930;28;20168;-69
2023/11/30 06:23:55;;;;;;;2.27;1.47;;;19.10;56.10;;;;;;5012922;28;20191;-68
2023/11/30 06:26:21;;;;;;;2.23;1.40;;;19.20;56.20;;;;;;5013356;28;20291;-68
2023/11/30 06:28:47;;;;;;;2.53;1.40;;;19.10;56.10;;;;;;5013285;28;20187;-68
2023/11/30 06:31:15;;;;;;;2.00;1.43;;;19.10;56.10;;;;;;5013244;28;20191;-68
2023/11/30 06:33:42;;;;;;;1.83;1.73;;;19.10;56.10;;;;;;5013097;28;20613;-68
2023/11/30 06:36:08;;;;;;;3.10;1.53;;;19.10;56.20;;;;;;5013052;28;20474;-69
2023/11/30 06:38:33;;;;;;;2.97;1.70;;;19.10;56.10;;;;;;5011727;28;20455;-67
2023/11/30 06:41:00;;;;;;;2.73;1.50;;;19.20;56.20;;;;;;5013127;28;20439;-68
2023/11/30 06:43:26;;;;;;;1.70;1.60;;;19.20;56.20;;;;;;5012951;28;20185;-68
2023/11/30 06:45:52;;;;;;;1.60;1.40;;;19.20;56.20;;;;;;5012897;28;20501;-68
2023/11/30 06:48:18;;;;;;;1.53;1.43;;;19.20;56.20;;;;;;5012938;28;20426;-68
2023/11/30 06:50:43;;;;;;;1.80;1.43;;;19.20;56.20;;;;;;5012879;28;20415;-68
2023/11/30 06:53:09;;;;;;;3.43;1.40;;;19.20;56.20;;;;;;5012763;28;20218;-68
2023/11/30 06:55:35;;;;;;;1.90;1.50;;;19.20;56.20;;;;;;5012646;28;20200;-68
2023/11/30 06:58:00;;;;;;;1.97;1.47;;;19.20;56.20;;;;;;5012714;28;20667;-68
2023/11/30 07:00:28;;;;;;;1.40;1.30;;;19.20;56.20;;;;;;5012701;28;20180;-68
2023/11/30 07:02:54;;;;;;;1.63;1.53;;;19.20;56.10;;;;;;5012636;28;20239;-69
2023/11/30 07:05:20;;;;;;;1.60;1.30;;;19.30;56.20;;;;;;5012527;28;20475;-69
2023/11/30 07:07:46;;;;;;;1.67;1.40;;;19.30;56.10;;;;;;5012791;28;20192;-67
2023/11/30 07:10:12;;;;;;;1.40;1.20;;;19.30;56.10;;;;;;5012669;28;20427;-68
2023/11/30 07:12:38;;;;;;;1.70;1.47;;;19.30;56.10;;;;;;5012404;28;20451;-68
2023/11/30 07:15:06;;;;;;;1.67;1.57;;;19.30;56.10;;;;;;5012276;28;20254;-68
2023/11/30 07:17:32;;;;;;;2.50;1.47;;;19.40;56.20;;;;;;5012622;28;20511;-68
2023/11/30 07:19:58;;;;;;;1.67;1.47;;;19.30;56.10;;;;;;5012447;28;20970;-68
2023/11/30 07:22:24;;;;;;;2.07;1.47;;;19.40;56.20;;;;;;5012500;28;20607;-68
2023/11/30 07:24:51;;;;;;;1.73;1.33;;;19.40;56.10;;;;;;5012213;28;20443;-69
2023/11/30 07:27:17;;;;;;;1.60;1.30;;;19.40;56.10;;;;;;5012586;28;20414;-68
2023/11/30 07:29:43;;;;;;;2.73;1.70;;;19.40;56.10;;;;;;5012064;28;20423;-68
2023/11/30 07:32:09;;;;;;;1.50;1.30;;;19.40;56.10;;;;;;5011947;28;20458;-67
2023/11/30 07:34:35;;;;;;;1.43;1.33;;;19.40;56.10;;;;;;5010878;28;20582;-68
2023/11/30 07:37:01;;;;;;;3.90;1.47;;;19.40;56.10;;;;;;5011941;28;20184;-68
2023/11/30 07:39:27;;;;;;;2.50;1.50;;;19.40;56.10;;;;;;5011932;28;20828;-68
2023/11/30 07:41:53;;;;;;;1.90;1.70;;;19.50;56.10;;;;;;5011858;28;20454;-67
2023/11/30 07:44:19;;;;;;;1.87;1.50;;;19.40;56.00;;;;;;5011821;28;20214;-68
2023/11/30 07:46:44;;;;;;;1.30;1.20;;;19.40;56.00;;;;;;5011841;28;20411;-68
2023/11/30 07:49:11;;;;;;;2.30;1.50;;;19.40;56.00;;;;;;5010372;28;20187;-68
2023/11/30 07:51:36;;;;;;;2.07;1.60;;;19.40;56.00;;;;;;5011765;28;20609;-68
2023/11/30 07:54:02;;;;;;;1.80;1.70;;;19.50;56.10;;;;;;5011423;28;20463;-68
2023/11/30 07:56:27;;;;;;;1.87;1.40;;;19.50;56.10;;;;;;5011665;28;20172;-68
2023/11/30 07:58:53;;;;;;;1.93;1.63;;;19.50;56.20;;;;;;5011814;28;20176;-68
2023/11/30 08:01:19;;;;;;;1.63;1.47;;;19.50;56.20;;;;;;5011722;28;20219;-68
2023/11/30 08:03:46;;;;;;;2.20;1.40;;;19.50;56.20;;;;;;5011501;28;20506;-69
2023/11/30 08:06:12;;;;;;;1.83;1.57;;;19.50;56.20;;;;;;5011349;28;20245;-68
2023/11/30 08:08:38;;;;;;;1.87;1.67;;;19.50;56.20;;;;;;5011392;28;20415;-68
2023/11/30 08:11:03;;;;;;;2.07;1.77;;;19.50;56.30;;;;;;5011286;28;20180;-68
2023/11/30 08:13:30;;;;;;;1.70;1.60;;;19.50;56.30;;;;;;5011246;28;20211;-68
2023/11/30 08:15:56;;;;;;;1.57;1.47;;;19.50;56.30;;;;;;5011237;28;20243;-68
2023/11/30 08:18:24;;;;;;;1.87;1.47;;;19.50;56.30;;;;;;5011198;28;21299;-68
2023/11/30 08:20:51;;;;;;;1.53;1.30;;;19.50;56.30;;;;;;5011470;28;20287;-66
2023/11/30 08:23:17;;;;;;;2.33;1.80;;;19.50;56.30;;;;;;5011291;28;20415;-66
2023/11/30 08:25:42;;;;;;;1.53;1.33;;;19.50;56.30;;;;;;5011289;28;20477;-66
2023/11/30 08:28:08;;;;;;;1.73;1.50;;;19.50;56.30;;;;;;5010961;28;20414;-66
2023/11/30 08:30:34;;;;;;;1.70;1.33;;;19.50;56.30;;;;;;5011021;28;20204;-65
2023/11/30 08:33:00;;;;;;;1.83;1.60;;;19.50;56.90;;;;;;5010910;28;20290;-66
2023/11/30 08:35:27;;;;;;;1.97;1.60;;;19.40;56.20;;;;;;5010801;28;20438;-66
2023/11/30 08:37:52;;;;;;;2.10;1.53;;;19.50;56.30;;;;;;5011096;28;20415;-68
2023/11/30 08:40:18;;;;;;;2.67;1.30;;;19.40;56.30;;;;;;5010867;28;20415;-67
2023/11/30 08:42:44;;;;;;;2.80;1.53;;;19.40;56.20;;;;;;5010856;28;20208;-68
2023/11/30 08:45:09;;;;;;;1.40;1.30;;;19.50;56.40;;;;;;5010381;28;20207;-68
2023/11/30 08:47:35;;;;;;;2.13;1.40;;;19.50;56.40;;;;;;5010689;28;20652;-69
2023/11/30 08:50:00;;;;;;;1.53;1.23;;;19.40;56.30;;;;;;5010715;28;20173;-67
2023/11/30 08:52:26;;;;;;;1.70;1.60;;;19.50;56.40;;;;;;5010650;28;20704;-65
2023/11/30 08:54:52;;;;;;;1.73;1.40;;;19.50;56.40;;;;;;5010669;28;20303;-66
2023/11/30 08:57:19;;;;;;;2.00;1.70;;;19.40;56.30;;;;;;5010611;28;20172;-66
2023/11/30 08:59:46;;;;;;;1.40;1.30;;;19.40;56.30;;;;;;5010582;28;20168;-67
2023/11/30 09:02:11;;;;;;;1.70;1.50;;;19.40;56.30;;;;;;5009257;28;20781;-66
2023/11/30 09:04:37;;;;;;;1.60;1.23;;;19.50;56.40;;;;;;5010452;28;20419;-67
2023/11/30 09:07:03;;;;;;;1.53;1.43;;;19.50;56.40;;;;;;5010760;28;20172;-65
2023/11/30 09:09:28;;;;;;;1.93;1.13;;;19.50;56.40;;;;;;5010653;28;20451;-66
2023/11/30 09:11:54;;;;;;;2.20;1.30;;;19.50;56.40;;;;;;5010664;28;20183;-66
2023/11/30 09:14:20;;;;;;;1.40;1.30;;;19.50;56.40;;;;;;5010415;28;20180;-66
2023/11/30 09:16:45;;;;;;;1.90;1.70;;;19.50;56.50;;;;;;5010555;28;20203;-67
2023/11/30 09:19:11;;;;;;;2.40;1.40;;;19.50;56.40;;;;;;5010527;28;20206;-66
2023/11/30 09:21:37;;;;;;;1.40;1.10;;;19.50;56.40;;;;;;5010462;28;20721;-66
2023/11/30 09:24:04;;;;;;;1.70;1.37;;;19.50;56.50;;;;;;5010537;28;20203;-65
2023/11/30 09:26:31;;;;;;;1.40;1.23;;;19.50;56.50;;;;;;5010559;28;21020;-68
2023/11/30 09:28:57;;;;;;;1.83;1.50;;;19.50;56.50;;;;;;5010423;28;20968;-67
2023/11/30 09:31:23;;;;;;;1.63;1.53;;;19.50;56.50;;;;;;5010481;28;20415;-68
2023/11/30 09:33:48;;;;;;;1.57;1.47;;;19.50;56.50;;;;;;5010282;28;20465;-68
2023/11/30 09:36:14;;;;;;;1.50;1.30;;;19.50;56.50;;;;;;5010338;28;20211;-68
2023/11/30 09:38:40;;;;;;;1.97;1.67;;;19.50;56.50;;;;;;5010342;28;20183;-68
2023/11/30 09:41:06;;;;;;;1.47;1.37;;;19.50;56.40;;;;;;5010223;28;20184;-69
2023/11/30 09:43:32;;;;;;;1.30;1.20;;;19.50;57.00;;;;;;5009003;28;20423;-67
2023/11/30 09:45:58;;;;;;;1.60;1.23;;;19.50;56.50;;;;;;5010133;28;20872;-69
2023/11/30 09:48:24;;;;;;;1.50;1.40;;;19.50;56.40;;;;;;5010183;28;20418;-68
2023/11/30 09:50:50;;;;;;;2.00;1.30;;;19.50;56.60;;;;;;5008853;28;20708;-68
2023/11/30 09:53:15;;;;;;;1.37;1.03;;;19.50;56.50;;;;;;5009955;28;20212;-69
2023/11/30 09:55:42;;;;;;;1.50;1.40;;;19.50;56.50;;;;;;5009962;28;20338;-68
2023/11/30 09:58:08;;;;;;;2.13;1.40;;;19.50;56.50;;;;;;5011996;28;20180;-68
2023/11/30 10:00:34;;;;;;;1.60;1.37;;;19.50;56.50;;;;;;5013776;28;20791;-66
2023/11/30 10:02:59;;;;;;;2.00;1.40;;;19.50;56.50;;;;;;5013751;28;20610;-68
2023/11/30 10:05:28;;;;;;;1.43;1.33;;;19.50;56.50;;;;;;5013943;28;20533;-68
2023/11/30 10:07:58;;;;;;;1.47;1.30;;;19.50;56.50;;;;;;5013933;28;20236;-68
2023/11/30 10:10:24;;;;;;;2.83;1.80;;;19.50;56.50;;;;;;5013708;28;20780;-68
2023/11/30 10:12:50;;;;;;;1.53;1.30;;;19.50;56.50;;;;;;5013588;28;20459;-68
2023/11/30 10:15:16;;;;;;;1.47;1.20;;;19.50;56.40;;;;;;5013535;28;20441;-67
2023/11/30 10:17:41;;;;;;;1.50;1.30;;;19.50;56.40;;;;;;5013484;28;20168;-68
2023/11/30 10:20:11;;;;;;;1.23;0.97;;;19.50;56.40;;;;;;5013411;28;20722;-69
2023/11/30 10:22:39;;;;;;;1.30;1.17;;;19.50;56.40;;;;;;5013447;28;20180;-68
2023/11/30 10:25:08;;;;;;;1.57;1.10;;;19.50;56.40;;;;;;5013149;28;20455;-67
2023/11/30 10:27:35;;;;;;;1.33;1.20;;;19.50;56.40;;;;;;5013377;28;20406;-68
2023/11/30 10:30:04;;;;;;;1.43;1.10;;;19.50;56.40;;;;;;5013537;28;20415;-69
2023/11/30 10:32:32;;;;;;;1.30;1.20;;;19.50;56.40;;;;;;5013192;28;20482;-69
2023/11/30 10:35:03;;;;;;;1.30;1.20;;;19.50;56.40;;;;;;5013270;28;20466;-67
2023/11/30 10:37:47;;;;;;;1.70;1.20;;;19.50;56.40;;;;;;5013162;28;20462;-66
2023/11/30 10:40:17;;;;;;;1.60;1.50;;;19.50;56.40;;;;;;5013042;28;20871;-66
2023/11/30 10:42:49;;;;;;;1.43;1.20;;;19.50;56.40;;;;;;5013211;28;20510;-67
2023/11/30 10:45:15;;;;;;;1.80;1.33;;;19.60;56.50;;;;;;5013282;28;20442;-66
2023/11/30 10:47:42;;;;;;;1.30;1.10;;;19.50;56.40;;;;;;5011664;28;20415;-68
2023/11/30 10:50:11;;;;;;;1.20;1.10;;;19.50;56.40;;;;;;5013574;28;20423;-68
2023/11/30 10:52:37;;;;;;;1.40;1.20;;;19.60;56.50;;;;;;5013493;28;20973;-68
2023/11/30 10:55:12;;;;;;;3.30;1.10;;;19.60;56.40;;;;;;5011588;28;20957;-66
2023/11/30 10:57:42;;;;;;;1.30;1.00;;;19.60;56.50;;;;;;5012761;28;20937;-68
2023/11/30 11:00:14;;;;;;;1.20;1.07;;;19.60;56.50;;;;;;5012693;28;20502;-68
2023/11/30 11:02:47;;;;;;;2.43;1.87;;;19.60;56.50;;;;;;5012652;28;20457;-68
2023/11/30 11:05:15;;;;;;;2.63;1.53;;;19.60;56.60;;;;;;5012635;28;20485;-68
2023/11/30 11:07:51;;;;;;;1.67;1.27;;;19.60;56.60;;;;;;5012537;28;20415;-68
2023/11/30 11:10:22;;;;;;;1.97;1.30;;;19.60;56.60;;;;;;5012493;28;20897;-68
2023/11/30 11:12:49;;;;;;;2.40;1.50;;;19.60;56.60;;;;;;5012547;28;20550;-68
2023/11/30 11:15:22;;;;;;;2.13;1.40;;;19.60;56.50;;;;;;5012753;28;20847;-69
2023/11/30 11:17:49;;;;;;;5.33;1.90;;;19.60;56.50;;;;;;5012330;28;20430;-69
2023/11/30 11:20:26;;;;;;;6.33;1.60;;;19.60;56.40;;;;;;5012872;28;20419;-69
2023/11/30 11:22:56;;;;;;;2.30;1.10;;;19.60;56.40;;;;;;5012969;28;20885;-68
2023/11/30 11:25:22;;;;;;;1.80;1.30;;;19.60;56.50;;;;;;5012715;28;20458;-68
2023/11/30 11:27:51;;;;;;;3.40;1.70;;;19.60;56.50;;;;;;5012228;28;20403;-69
2023/11/30 11:30:17;;;;;;;6.57;1.30;;;19.60;56.50;;;;;;5011860;28;20454;-70
2023/11/30 11:32:43;;;;;;;2.47;1.53;;;19.60;56.60;;;;;;5011986;28;20451;-70
2023/11/30 11:35:10;;;;;;;5.17;1.20;;;19.60;56.60;;;;;;5011954;28;20458;-69
2023/11/30 11:37:36;;;;;;;2.17;1.20;;;19.60;56.60;;;;;;5011908;28;20224;-69
2023/11/30 11:40:03;;;;;;;3.63;1.60;;;19.60;56.60;;;;;;5011913;28;20833;-68
2023/11/30 11:42:29;;;;;;;1.63;1.30;;;19.60;56.60;;;;;;5011853;28;20651;-69
2023/11/30 11:44:55;;;;;;;2.97;1.60;;;19.60;56.60;;;;;;5011631;28;20446;-70
2023/11/30 11:47:22;;;;;;;2.50;1.67;;;19.60;56.60;;;;;;5011795;28;20667;-69
2023/11/30 11:49:47;;;;;;;3.43;1.70;;;19.60;56.60;;;;;;5011662;28;20176;-69
2023/11/30 11:52:20;;;;;;;3.63;1.33;;;19.60;56.60;;;;;;5011618;28;20419;-70
2023/11/30 11:54:46;;;;;;;1.87;1.47;;;19.60;56.60;;;;;;5011586;28;20683;-69
2023/11/30 11:57:12;;;;;;;3.40;1.70;;;19.60;56.60;;;;;;5011592;28;20492;-70
2023/11/30 11:59:37;;;;;;;3.60;1.20;;;19.60;56.60;;;;;;5011468;28;20536;-69
2023/11/30 12:02:03;;;;;;;2.77;1.70;;;19.50;56.50;;;;;;5011475;28;20177;-69
2023/11/30 12:04:28;;;;;;;2.67;1.37;;;19.50;56.50;;;;;;5011308;28;20207;-69
2023/11/30 12:06:55;;;;;;;3.87;1.30;;;19.50;56.50;;;;;;5011629;28;20242;-69
2023/11/30 12:09:20;;;;;;;1.93;1.40;;;19.50;56.50;;;;;;5011412;28;20182;-69
2023/11/30 12:11:47;;;;;;;1.87;1.40;;;19.50;56.50;;;;;;5011323;28;21007;-68
2023/11/30 12:14:15;;;;;;;6.03;1.20;;;19.50;56.50;;;;;;5009673;28;20686;-69
2023/11/30 12:16:42;;;;;;;3.10;1.57;;;19.50;56.50;;;;;;5011406;28;20849;-70
2023/11/30 12:19:08;;;;;;;1.60;1.47;;;19.60;56.60;;;;;;5011188;28;20542;-70
2023/11/30 12:21:35;;;;;;;3.20;2.10;;;19.60;56.60;;;;;;5010587;28;20862;-69
2023/11/30 12:24:04;;;;;;;3.30;1.80;;;19.50;56.50;;;;;;5011351;28;20437;-69
2023/11/30 12:26:29;;;;;;;2.93;1.53;;;19.50;56.50;;;;;;5010909;28;20918;-69
2023/11/30 12:28:57;;;;;;;2.93;1.93;;;19.50;56.50;;;;;;5010987;28;20431;-70
2023/11/30 12:31:24;;;;;;;4.53;2.80;;;19.50;56.50;;;;;;5011398;28;20212;-70
2023/11/30 12:33:49;;;;;;;5.50;2.40;;;19.50;56.60;;;;;;5010766;28;20957;-69
2023/11/30 12:36:15;;;;;;;5.63;3.30;;;19.50;56.60;;;;;;5010587;28;20533;-69
2023/11/30 12:38:40;;;;;;;6.07;3.43;;;19.50;56.60;;;;;;5010838;28;20519;-69
2023/11/30 12:41:06;;;;;;;5.50;3.50;;;19.60;56.60;;;;;;5011046;28;20184;-69
2023/11/30 12:43:32;;;;;;;6.17;3.30;;;19.50;56.60;;;;;;5010851;28;20184;-68